Weather at Kaliningrad Chkalovsk Naval Air Base

Public forecast

Using degrees Celsius for public forecast. Weather courtesy of forecast.io.

Closest aviation weather report (METAR) to Kaliningrad Chkalovsk Naval Air Base

Closest report is Khrabrovo Airport, 10.0 nm (18.6 km) NE. Retrieved 2021/06/13 17:00 UTC (12 minutes ago):

UMKK 131700Z 31005MPS 9999 FEW018 17/11 Q1018 R24/CLRD95 NOSIG RMK QFE762/1016

Closest aviation forecast (TAF) to Kaliningrad Chkalovsk Naval Air Base

Closest forecast is Khrabrovo Airport, 10.0 nm (18.6 km) NE. Retrieved 2021/06/13 15:21 UTC (2 hours ago):

TAF UMKK 131356Z 1315/1415 32010G16MPS 9999 SCT016CB BECMG 1316/1318 34005G10MPS BECMG 1322/1324 VRB01MPS FEW020 BECMG 1410/1412 31005G10MPS